Shinko Maru — JD3707 — position and weather

sailwx.info

Track history (hours):
 
Tides and Currents Weather Stations Pressure Air Temp Water Temp Dewpoint Dewpoint Depression Visibility Wind Speed Wind Dir Waves Ship Positions

Shinko Maru

Last reported at 2018-Apr-18 23:13 UTC. Time now 2018-Apr-19 19:35 UTC.
Position N 34°23' E 130°50'.

Length 79 m; draft 5 m.

Type: Tanker. MMSI: 431005409.

Date/timePositionNaut miles runAvg speedWind from/ knotsBaromVisibWave heightAir tempDewpointWater temp
2018-Apr-18 23:13N 34°23' E 130°50'311.7
2018-Apr-18 22:57N 34°20' E 130°49'612.6
2018-Apr-18 22:30N 34°15' E 130°49'612.3
2018-Apr-18 22:00N 34°08' E 130°50'612.4
2018-Apr-18 21:30N 34°03' E 130°52'611.0
2018-Apr-18 21:00N 33°57' E 130°52'4 7.2
2018-Apr-18 20:30N 33°55' E 130°56'4 7.7
2018-Apr-18 20:00N 33°58' E 130°58'5 9.5
2018-Apr-18 19:30N 33°57' E 131°04'611.4
2018-Apr-18 19:00N 33°54' E 131°10'611.0
2018-Apr-18 18:30N 33°52' E 131°16'611.5
2018-Apr-18 18:00N 33°51' E 131°23'611.6
2018-Apr-18 17:30N 33°49' E 131°30'611.5
2018-Apr-18 16:59N 33°48' E 131°37'511.2
2018-Apr-18 16:30N 33°46' E 131°43'611.4
2018-Apr-18 16:00N 33°45' E 131°49'611.6
2018-Apr-18 15:28N 33°44' E 131°57'611.6
2018-Apr-18 14:58N 33°43' E 132°04'811.2
2018-Apr-18 14:16N 33°43' E 132°13'1711.2
2018-Apr-18 12:47N 33°50' E 132°31'410.7
2018-Apr-18 12:24N 33°53' E 132°35'410.2
2018-Apr-18 12:00N 33°55' E 132°39'5 9.8
2018-Apr-18 11:30N 33°58' E 132°43'3 0.1
2018-Apr-17 09:11N 34°01' E 132°46'213.0
2018-Apr-17 09:00N 33°59' E 132°44'611.6
2018-Apr-17 08:30N 33°55' E 132°39'611.9
2018-Apr-17 08:00N 33°51' E 132°34'611.4
2018-Apr-17 07:29N 33°47' E 132°28'1211.5
2018-Apr-17 06:27N 33°43' E 132°15'2011.9
2018-Apr-17 04:49N 33°43' E 131°52'513.5
2018-Apr-17 04:29N 33°45' E 131°47'714.0
2018-Apr-17 04:00N 33°46' E 131°39'713.7
2018-Apr-17 03:30N 33°48' E 131°31'713.5
2018-Apr-17 03:00N 33°49' E 131°23'713.2
2018-Apr-17 02:30N 33°51' E 131°15'612.5
2018-Apr-17 02:00N 33°53' E 131°08'612.3
2018-Apr-17 01:30N 33°57' E 131°02'4 8.6
2018-Apr-17 01:00N 33°57' E 130°57'4 8.2
2018-Apr-17 00:30N 33°54' E 130°54'5 9.7
2018-Apr-17 00:00N 33°59' E 130°53'612.1
2018-Apr-16 23:31N 34°05' E 130°51'612.6
2018-Apr-16 23:00N 34°11' E 130°50'612.6
2018-Apr-16 22:30N 34°17' E 130°49'612.4
2018-Apr-16 22:00N 34°24' E 130°51'  
2018-Apr-12 13:11N 34°26' E 130°54'312.9
2018-Apr-12 12:56N 34°23' E 130°51'512.1
2018-Apr-12 12:30N 34°18' E 130°49'612.5
2018-Apr-12 12:00N 34°12' E 130°50'612.4
2018-Apr-12 11:30N 34°06' E 130°51'612.3
2018-Apr-12 11:00N 34°00' E 130°53'611.4
2018-Apr-12 10:30N 33°55' E 130°54'612.4
2018-Apr-12 10:01N 33°59' E 130°60'612.3
2018-Apr-12 09:30N 33°56' E 131°06'612.4
2018-Apr-12 09:00N 33°52' E 131°12'612.4
2018-Apr-12 08:30N 33°51' E 131°20'612.4
2018-Apr-12 08:00N 33°50' E 131°27'612.5
2018-Apr-12 07:30N 33°48' E 131°34'612.3
2018-Apr-12 07:00N 33°47' E 131°42'1612.3
2018-Apr-12 05:40N 33°46' E 132°01'1010.8
2018-Apr-12 04:43N 33°54' E 132°09'910.8
2018-Apr-12 03:52N 34°02' E 132°14'512.3
2018-Apr-12 03:29N 34°06' E 132°17'611.1
2018-Apr-12 02:59N 34°11' E 132°16'1 0.3
2018-Apr-11 23:46N 34°12' E 132°15'0 0.7
2018-Apr-11 23:30N 34°12' E 132°15'2 3.9
2018-Apr-11 23:00N 34°11' E 132°17'1 1.0
2018-Apr-11 22:12N 34°10' E 132°18'0 0.0
2018-Apr-11 21:54N 34°10' E 132°18'0 0.0
2018-Apr-11 21:30N 34°10' E 132°18'0 0.0
2018-Apr-11 21:00N 34°10' E 132°18'0 0.0
2018-Apr-11 20:30N 34°10' E 132°18'0 0.1
2018-Apr-11 20:00N 34°10' E 132°18'0 0.0
2018-Apr-11 19:30N 34°10' E 132°18'0 0.0
2018-Apr-11 19:00N 34°10' E 132°18'0 0.0
2018-Apr-11 18:30N 34°10' E 132°18'0 0.0
2018-Apr-11 18:00N 34°10' E 132°18'0 0.0
2018-Apr-11 17:27N 34°10' E 132°18'0 0.0
2018-Apr-11 16:54N 34°10' E 132°18'0 0.0
2018-Apr-11 16:21N 34°10' E 132°18'0 0.0
2018-Apr-11 15:57N 34°10' E 132°18'0 0.1
2018-Apr-11 15:27N 34°10' E 132°18'0 0.0
2018-Apr-11 15:00N 34°10' E 132°18'0 0.0
2018-Apr-11 14:30N 34°10' E 132°18'0 0.0
2018-Apr-11 14:00N 34°10' E 132°18'0 0.0
2018-Apr-11 13:30N 34°10' E 132°18'0 0.0
2018-Apr-11 13:00N 34°10' E 132°18'0 0.0
2018-Apr-11 12:27N 34°10' E 132°18'0 0.0
2018-Apr-11 12:00N 34°10' E 132°18'0 0.0
2018-Apr-11 11:27N 34°10' E 132°18'0 0.1
2018-Apr-11 10:51N 34°10' E 132°18'0 1.3
2018-Apr-11 10:30N 34°10' E 132°18'510.6
2018-Apr-11 10:00N 34°07' E 132°23'811.1
2018-Apr-11 09:17N 34°02' E 132°31'310.8
2018-Apr-11 09:00N 34°03' E 132°34'611.6
2018-Apr-11 08:30N 34°06' E 132°40'7 0.2
2018-Apr-09 22:52N 33°60' E 132°45'512.4
2018-Apr-09 22:29N 33°56' E 132°41'612.6
2018-Apr-09 22:00N 33°52' E 132°36'2312.5
2018-Apr-09 20:11N 33°42' E 132°11'412.7
2018-Apr-09 19:50N 33°41' E 132°06'612.9
2018-Apr-09 19:23N 33°42' E 131°59'512.7
2018-Apr-09 18:59N 33°44' E 131°53'612.5
2018-Apr-09 18:30N 33°45' E 131°46'612.6
2018-Apr-09 18:00N 33°46' E 131°39'612.4
2018-Apr-09 17:30N 33°48' E 131°32'612.3
2018-Apr-09 17:00N 33°49' E 131°24'612.4
2018-Apr-09 16:30N 33°50' E 131°17'612.2
2018-Apr-09 16:01N 33°52' E 131°10'612.7
2018-Apr-09 15:30N 33°56' E 131°04'611.3
2018-Apr-09 15:00N 33°58' E 130°58'510.0
2018-Apr-09 14:30N 33°56' E 130°53'612.0
2018-Apr-09 14:00N 33°58' E 130°46'612.5
2018-Apr-09 13:30N 33°58' E 130°38'612.6
2018-Apr-09 13:00N 33°57' E 130°31'612.8
2018-Apr-09 12:30N 33°56' E 130°23'612.6
2018-Apr-09 12:00N 33°52' E 130°17'612.8
2018-Apr-09 11:30N 33°49' E 130°10'712.8
2018-Apr-09 10:59N 33°45' E 130°03'612.9
2018-Apr-09 10:30N 33°42' E 129°57'712.7
2018-Apr-09 09:56N 33°38' E 129°50'512.5
2018-Apr-09 09:30N 33°36' E 129°44'  
Track history (hours):
 
Tides and Currents Weather Stations Pressure Air Temp Water Temp Dewpoint Dewpoint Depression Visibility Wind Speed Wind Dir Waves Ship Positions

Shinko Maru

Last reported at 2018-Apr-18 23:13 UTC. Time now 2018-Apr-19 19:35 UTC.
Position N 34°23' E 130°50'.

Length 79 m; draft 5 m.

Type: Tanker. MMSI: 431005409.

Date/timePositionNaut miles runAvg speedWind from/ knotsBaromVisibWave heightAir tempDewpointWater temp
2018-Apr-18 23:13N 34°23' E 130°50'311.7
2018-Apr-18 22:57N 34°20' E 130°49'612.6
2018-Apr-18 22:30N 34°15' E 130°49'612.3
2018-Apr-18 22:00N 34°08' E 130°50'612.4
2018-Apr-18 21:30N 34°03' E 130°52'611.0
2018-Apr-18 21:00N 33°57' E 130°52'4 7.2
2018-Apr-18 20:30N 33°55' E 130°56'4 7.7
2018-Apr-18 20:00N 33°58' E 130°58'5 9.5
2018-Apr-18 19:30N 33°57' E 131°04'611.4
2018-Apr-18 19:00N 33°54' E 131°10'611.0
2018-Apr-18 18:30N 33°52' E 131°16'611.5
2018-Apr-18 18:00N 33°51' E 131°23'611.6
2018-Apr-18 17:30N 33°49' E 131°30'611.5
2018-Apr-18 16:59N 33°48' E 131°37'511.2
2018-Apr-18 16:30N 33°46' E 131°43'611.4
2018-Apr-18 16:00N 33°45' E 131°49'611.6
2018-Apr-18 15:28N 33°44' E 131°57'611.6
2018-Apr-18 14:58N 33°43' E 132°04'811.2
2018-Apr-18 14:16N 33°43' E 132°13'1711.2
2018-Apr-18 12:47N 33°50' E 132°31'410.7
2018-Apr-18 12:24N 33°53' E 132°35'410.2
2018-Apr-18 12:00N 33°55' E 132°39'5 9.8
2018-Apr-18 11:30N 33°58' E 132°43'3 0.1
2018-Apr-17 09:11N 34°01' E 132°46'213.0
2018-Apr-17 09:00N 33°59' E 132°44'611.6
2018-Apr-17 08:30N 33°55' E 132°39'611.9
2018-Apr-17 08:00N 33°51' E 132°34'611.4
2018-Apr-17 07:29N 33°47' E 132°28'1211.5
2018-Apr-17 06:27N 33°43' E 132°15'2011.9
2018-Apr-17 04:49N 33°43' E 131°52'513.5
2018-Apr-17 04:29N 33°45' E 131°47'714.0
2018-Apr-17 04:00N 33°46' E 131°39'713.7
2018-Apr-17 03:30N 33°48' E 131°31'713.5
2018-Apr-17 03:00N 33°49' E 131°23'713.2
2018-Apr-17 02:30N 33°51' E 131°15'612.5
2018-Apr-17 02:00N 33°53' E 131°08'612.3
2018-Apr-17 01:30N 33°57' E 131°02'4 8.6
2018-Apr-17 01:00N 33°57' E 130°57'4 8.2
2018-Apr-17 00:30N 33°54' E 130°54'5 9.7
2018-Apr-17 00:00N 33°59' E 130°53'612.1
2018-Apr-16 23:31N 34°05' E 130°51'612.6
2018-Apr-16 23:00N 34°11' E 130°50'612.6
2018-Apr-16 22:30N 34°17' E 130°49'612.4
2018-Apr-16 22:00N 34°24' E 130°51'  
2018-Apr-12 13:11N 34°26' E 130°54'312.9
2018-Apr-12 12:56N 34°23' E 130°51'512.1
2018-Apr-12 12:30N 34°18' E 130°49'612.5
2018-Apr-12 12:00N 34°12' E 130°50'612.4
2018-Apr-12 11:30N 34°06' E 130°51'612.3
2018-Apr-12 11:00N 34°00' E 130°53'611.4
2018-Apr-12 10:30N 33°55' E 130°54'612.4
2018-Apr-12 10:01N 33°59' E 130°60'612.3
2018-Apr-12 09:30N 33°56' E 131°06'612.4
2018-Apr-12 09:00N 33°52' E 131°12'612.4
2018-Apr-12 08:30N 33°51' E 131°20'612.4
2018-Apr-12 08:00N 33°50' E 131°27'612.5
2018-Apr-12 07:30N 33°48' E 131°34'612.3
2018-Apr-12 07:00N 33°47' E 131°42'1612.3
2018-Apr-12 05:40N 33°46' E 132°01'1010.8
2018-Apr-12 04:43N 33°54' E 132°09'910.8
2018-Apr-12 03:52N 34°02' E 132°14'512.3
2018-Apr-12 03:29N 34°06' E 132°17'611.1
2018-Apr-12 02:59N 34°11' E 132°16'1 0.3
2018-Apr-11 23:46N 34°12' E 132°15'0 0.7
2018-Apr-11 23:30N 34°12' E 132°15'2 3.9
2018-Apr-11 23:00N 34°11' E 132°17'1 1.0
2018-Apr-11 22:12N 34°10' E 132°18'0 0.0
2018-Apr-11 21:54N 34°10' E 132°18'0 0.0
2018-Apr-11 21:30N 34°10' E 132°18'0 0.0
2018-Apr-11 21:00N 34°10' E 132°18'0 0.0
2018-Apr-11 20:30N 34°10' E 132°18'0 0.1
2018-Apr-11 20:00N 34°10' E 132°18'0 0.0
2018-Apr-11 19:30N 34°10' E 132°18'0 0.0
2018-Apr-11 19:00N 34°10' E 132°18'0 0.0
2018-Apr-11 18:30N 34°10' E 132°18'0 0.0
2018-Apr-11 18:00N 34°10' E 132°18'0 0.0
2018-Apr-11 17:27N 34°10' E 132°18'0 0.0
2018-Apr-11 16:54N 34°10' E 132°18'0 0.0
2018-Apr-11 16:21N 34°10' E 132°18'0 0.0
2018-Apr-11 15:57N 34°10' E 132°18'0 0.1
2018-Apr-11 15:27N 34°10' E 132°18'0 0.0
2018-Apr-11 15:00N 34°10' E 132°18'0 0.0
2018-Apr-11 14:30N 34°10' E 132°18'0 0.0
2018-Apr-11 14:00N 34°10' E 132°18'0 0.0
2018-Apr-11 13:30N 34°10' E 132°18'0 0.0
2018-Apr-11 13:00N 34°10' E 132°18'0 0.0
2018-Apr-11 12:27N 34°10' E 132°18'0 0.0
2018-Apr-11 12:00N 34°10' E 132°18'0 0.0
2018-Apr-11 11:27N 34°10' E 132°18'0 0.1
2018-Apr-11 10:51N 34°10' E 132°18'0 1.3
2018-Apr-11 10:30N 34°10' E 132°18'510.6
2018-Apr-11 10:00N 34°07' E 132°23'811.1
2018-Apr-11 09:17N 34°02' E 132°31'310.8
2018-Apr-11 09:00N 34°03' E 132°34'611.6
2018-Apr-11 08:30N 34°06' E 132°40'7 0.2
2018-Apr-09 22:52N 33°60' E 132°45'512.4
2018-Apr-09 22:29N 33°56' E 132°41'612.6
2018-Apr-09 22:00N 33°52' E 132°36'2312.5
2018-Apr-09 20:11N 33°42' E 132°11'412.7
2018-Apr-09 19:50N 33°41' E 132°06'612.9
2018-Apr-09 19:23N 33°42' E 131°59'512.7
2018-Apr-09 18:59N 33°44' E 131°53'612.5
2018-Apr-09 18:30N 33°45' E 131°46'612.6
2018-Apr-09 18:00N 33°46' E 131°39'612.4
2018-Apr-09 17:30N 33°48' E 131°32'612.3
2018-Apr-09 17:00N 33°49' E 131°24'612.4
2018-Apr-09 16:30N 33°50' E 131°17'612.2
2018-Apr-09 16:01N 33°52' E 131°10'612.7
2018-Apr-09 15:30N 33°56' E 131°04'611.3
2018-Apr-09 15:00N 33°58' E 130°58'510.0
2018-Apr-09 14:30N 33°56' E 130°53'612.0
2018-Apr-09 14:00N 33°58' E 130°46'612.5
2018-Apr-09 13:30N 33°58' E 130°38'612.6
2018-Apr-09 13:00N 33°57' E 130°31'612.8
2018-Apr-09 12:30N 33°56' E 130°23'612.6
2018-Apr-09 12:00N 33°52' E 130°17'612.8
2018-Apr-09 11:30N 33°49' E 130°10'712.8
2018-Apr-09 10:59N 33°45' E 130°03'612.9
2018-Apr-09 10:30N 33°42' E 129°57'712.7
2018-Apr-09 09:56N 33°38' E 129°50'512.5
2018-Apr-09 09:30N 33°36' E 129°44'  

Dump ship's entire track history